Time;durP1;ratioP1;P1;durP2;ratioP2;P2;SDS_P1;SDS_P2;PMS_P1;PMS_P2;Temp;Humidity;BMP_temperature;BMP_pressure;BME280_temperature;BME280_humidity;BME280_pressure;Samples;Min_cycle;Max_cycle;Signal;HPM_P1;HPM_P2
2021/12/15 00:01:33;;;;;;;36.80;20.70;;;8.10;99.90;;;;;;5019840;28;20026;-56
2021/12/15 00:03:59;;;;;;;36.40;20.90;;;8.10;99.90;;;;;;5021008;28;20037;-55
2021/12/15 00:06:24;;;;;;;39.17;22.23;;;8.10;99.90;;;;;;5020591;28;20029;-56
2021/12/15 00:08:54;;;;;;;37.53;20.88;;;8.10;99.90;;;;;;5020572;28;20041;-55
2021/12/15 00:11:21;;;;;;;37.55;20.75;;;8.20;99.90;;;;;;5021091;28;20049;-55
2021/12/15 00:13:49;;;;;;;36.58;20.88;;;8.10;99.90;;;;;;5020337;28;20195;-53
2021/12/15 00:16:16;;;;;;;36.17;20.30;;;8.10;99.90;;;;;;5019662;28;20060;-57
2021/12/15 00:18:44;;;;;;;37.17;21.83;;;8.20;99.90;;;;;;5020301;28;20045;-55
2021/12/15 00:21:14;;;;;;;35.58;21.55;;;8.10;99.90;;;;;;5019443;28;20593;-54
2021/12/15 00:23:41;;;;;;;32.45;18.70;;;8.10;99.90;;;;;;5019494;28;20273;-56
2021/12/15 00:26:08;;;;;;;38.15;21.05;;;8.10;99.90;;;;;;5019760;28;20033;-55
2021/12/15 00:28:33;;;;;;;35.45;21.13;;;8.20;99.90;;;;;;5020530;28;20582;-53
2021/12/15 00:31:00;;;;;;;37.55;21.40;;;8.20;99.90;;;;;;5019427;28;20029;-55
2021/12/15 00:33:26;;;;;;;37.22;20.42;;;8.10;99.90;;;;;;5021286;28;20121;-57
2021/12/15 00:35:51;;;;;;;39.17;20.45;;;8.20;99.90;;;;;;5019897;28;20112;-56
2021/12/15 00:38:17;;;;;;;37.00;20.23;;;8.20;99.90;;;;;;5019648;28;20021;-57
2021/12/15 00:40:43;;;;;;;37.00;20.55;;;8.20;99.90;;;;;;5018679;28;20026;-57
2021/12/15 00:43:08;;;;;;;35.20;20.33;;;8.20;99.90;;;;;;5018900;28;20026;-54
2021/12/15 00:45:34;;;;;;;37.00;18.75;;;8.20;99.90;;;;;;5019300;28;20049;-56
2021/12/15 00:48:00;;;;;;;36.35;20.58;;;8.20;99.90;;;;;;5017324;28;20033;-55
2021/12/15 00:50:32;;;;;;;37.05;20.65;;;8.20;99.90;;;;;;5019284;28;20030;-56
2021/12/15 00:52:58;;;;;;;37.63;20.75;;;8.20;99.90;;;;;;5019450;28;20027;-52
2021/12/15 00:55:25;;;;;;;38.45;19.40;;;8.20;99.90;;;;;;5019428;28;20554;-53
2021/12/15 00:57:52;;;;;;;39.55;20.02;;;8.20;99.90;;;;;;5018092;28;20396;-55
2021/12/15 01:00:25;;;;;;;36.35;21.33;;;8.20;99.90;;;;;;5019422;28;20490;-53
2021/12/15 01:02:52;;;;;;;34.75;20.55;;;8.20;99.90;;;;;;5019958;28;20029;-57
2021/12/15 01:05:22;;;;;;;32.83;19.83;;;8.30;99.90;;;;;;5019305;28;20438;-53
2021/12/15 01:07:48;;;;;;;34.33;18.65;;;8.20;99.90;;;;;;5018445;28;20531;-54
2021/12/15 01:10:23;;;;;;;39.22;20.85;;;8.20;99.90;;;;;;5018956;28;20022;-54
2021/12/15 01:21:06;;;;;;;33.28;19.98;;;8.20;99.90;;;;;;5020105;28;20123;-55
2021/12/15 01:23:33;;;;;;;34.63;19.92;;;8.30;99.90;;;;;;5019955;28;20373;-55
2021/12/15 01:26:09;;;;;;;32.80;18.67;;;8.30;99.90;;;;;;5018272;28;20432;-54
2021/12/15 01:28:34;;;;;;;35.20;20.80;;;8.20;99.90;;;;;;5016687;28;20026;-52
2021/12/15 01:31:01;;;;;;;33.63;20.30;;;8.30;99.90;;;;;;5016725;28;20084;-52
2021/12/15 01:33:28;;;;;;;32.20;20.83;;;8.30;99.90;;;;;;5020183;28;20029;-54
2021/12/15 01:35:55;;;;;;;34.55;19.50;;;8.30;99.90;;;;;;5019081;28;20029;-52
2021/12/15 01:38:26;;;;;;;34.45;18.30;;;8.20;99.90;;;;;;5014151;28;20833;-54
2021/12/15 01:40:51;;;;;;;32.40;19.95;;;8.30;99.90;;;;;;5019200;28;20105;-52
2021/12/15 01:43:29;;;;;;;34.60;20.08;;;8.30;99.90;;;;;;5018137;28;20454;-51
2021/12/15 01:48:54;;;;;;;36.88;20.30;;;8.30;99.90;;;;;;5017886;28;20110;-52
2021/12/15 01:51:20;;;;;;;35.42;20.75;;;8.20;99.90;;;;;;5017348;28;20045;-52
2021/12/15 01:53:45;;;;;;;35.20;20.10;;;8.30;99.90;;;;;;5018625;28;20034;-53
2021/12/15 01:56:11;;;;;;;33.08;19.13;;;8.30;99.90;;;;;;5019407;28;20037;-52
2021/12/15 01:58:37;;;;;;;33.88;20.67;;;8.30;99.90;;;;;;5015614;28;20022;-52
2021/12/15 02:01:08;;;;;;;31.00;19.63;;;8.30;99.90;;;;;;5016137;28;20045;-52
2021/12/15 02:03:35;;;;;;;30.98;19.50;;;8.30;99.90;;;;;;5016144;28;20071;-52
2021/12/15 02:06:01;;;;;;;32.17;18.48;;;8.30;99.90;;;;;;5019200;28;20030;-54
2021/12/15 02:08:27;;;;;;;41.00;20.05;;;8.30;99.90;;;;;;5017461;28;20508;-51
2021/12/15 02:10:53;;;;;;;32.33;18.73;;;8.30;99.90;;;;;;5018087;28;20028;-51
2021/12/15 02:13:20;;;;;;;37.30;19.83;;;8.30;99.90;;;;;;5017102;28;20036;-52
2021/12/15 02:15:50;;;;;;;32.88;20.52;;;8.30;99.90;;;;;;5018152;28;20463;-51
2021/12/15 02:18:19;;;;;;;37.15;21.00;;;8.30;99.90;;;;;;5016571;28;20396;-52
2021/12/15 02:20:52;;;;;;;32.83;20.20;;;8.30;99.90;;;;;;5018290;28;20030;-53
2021/12/15 02:23:22;;;;;;;33.08;18.58;;;8.30;99.90;;;;;;5018570;28;20025;-52
2021/12/15 02:25:55;;;;;;;34.83;20.23;;;8.40;99.90;;;;;;5018009;28;20022;-52
2021/12/15 02:28:22;;;;;;;36.42;20.05;;;8.40;99.90;;;;;;5016772;28;20026;-54
2021/12/15 02:31:07;;;;;;;33.35;20.48;;;8.40;99.90;;;;;;5016149;28;20045;-51
2021/12/15 02:33:52;;;;;;;37.55;20.25;;;8.40;99.90;;;;;;5018530;28;20414;-51
2021/12/15 02:39:09;;;;;;;35.13;20.27;;;8.40;99.90;;;;;;5017194;28;20029;-57
2021/12/15 02:41:35;;;;;;;39.08;20.67;;;8.40;99.90;;;;;;5017970;28;20332;-53
2021/12/15 02:44:05;;;;;;;38.08;20.75;;;8.40;99.90;;;;;;5020224;28;20025;-52
2021/12/15 02:46:33;;;;;;;33.63;19.02;;;8.40;99.90;;;;;;5022110;28;20061;-55
2021/12/15 02:49:00;;;;;;;33.63;20.15;;;8.40;99.90;;;;;;5021011;28;20032;-54
2021/12/15 02:51:26;;;;;;;37.38;20.40;;;8.40;99.90;;;;;;5020447;28;20059;-54
2021/12/15 02:53:54;;;;;;;34.88;20.75;;;8.50;99.90;;;;;;5021747;28;20030;-54
2021/12/15 02:56:20;;;;;;;37.00;20.40;;;8.40;99.90;;;;;;5023156;28;20037;-52
2021/12/15 02:58:57;;;;;;;34.95;20.10;;;8.50;99.90;;;;;;5022738;28;20570;-56
2021/12/15 03:01:35;;;;;;;39.60;20.98;;;8.50;99.90;;;;;;5021123;28;20157;-50
2021/12/15 03:04:16;;;;;;;31.27;18.65;;;8.50;99.90;;;;;;5018033;28;20033;-51
2021/12/15 03:07:08;;;;;;;37.80;21.23;;;8.50;99.90;;;;;;5021413;28;20031;-53
2021/12/15 03:18:12;;;;;;;34.95;20.33;;;8.60;99.90;;;;;;5022231;28;20048;-54
2021/12/15 03:20:49;;;;;;;35.67;20.45;;;8.50;99.90;;;;;;5021816;28;20034;-53
2021/12/15 03:23:24;;;;;;;41.25;21.40;;;8.50;99.90;;;;;;5022176;28;20389;-55
2021/12/15 03:25:50;;;;;;;36.55;22.25;;;8.60;99.90;;;;;;5019881;28;20030;-51
2021/12/15 03:34:12;;;;;;;36.30;20.65;;;8.60;99.90;;;;;;5008476;28;20697;-57
2021/12/15 03:39:26;;;;;;;37.33;19.92;;;8.60;99.90;;;;;;5019811;28;20021;-57
2021/12/15 03:41:59;;;;;;;42.20;20.40;;;8.60;99.90;;;;;;5020081;28;20026;-58
2021/12/15 03:44:25;;;;;;;45.97;21.20;;;8.60;99.90;;;;;;5019942;28;20431;-57
2021/12/15 03:46:55;;;;;;;39.25;20.35;;;8.60;99.90;;;;;;5019258;28;20108;-58
2021/12/15 03:49:20;;;;;;;41.45;20.38;;;8.60;99.90;;;;;;5018100;28;20030;-56
2021/12/15 03:51:46;;;;;;;38.83;20.20;;;8.70;99.90;;;;;;5018374;28;20025;-56
2021/12/15 03:54:12;;;;;;;43.45;20.73;;;8.70;99.90;;;;;;5018519;28;20079;-59
2021/12/15 03:56:40;;;;;;;41.42;21.23;;;8.70;99.90;;;;;;5019453;28;20069;-58
2021/12/15 03:59:06;;;;;;;41.85;20.98;;;8.70;99.90;;;;;;5019631;28;20017;-59
2021/12/15 04:01:35;;;;;;;41.22;20.13;;;8.70;99.90;;;;;;5019914;28;20373;-59
2021/12/15 04:04:01;;;;;;;41.10;21.20;;;8.70;99.90;;;;;;5019568;28;20547;-59
2021/12/15 04:06:34;;;;;;;38.70;19.55;;;8.70;99.90;;;;;;5018794;28;20439;-59
2021/12/15 04:09:00;;;;;;;36.95;19.50;;;8.70;99.90;;;;;;5018125;28;20511;-56
2021/12/15 04:11:33;;;;;;;39.13;20.42;;;8.70;99.90;;;;;;5018879;28;20547;-57
2021/12/15 04:14:00;;;;;;;35.15;19.20;;;8.70;99.90;;;;;;5019821;28;20064;-56
2021/12/15 04:18:54;;;;;;;40.13;20.60;;;8.70;99.90;;;;;;5018609;28;20022;-59
2021/12/15 04:21:20;;;;;;;41.92;21.25;;;8.70;99.90;;;;;;5019410;28;20037;-59
2021/12/15 04:23:50;;;;;;;36.40;19.42;;;8.70;99.90;;;;;;5019246;28;20460;-58
2021/12/15 04:26:16;;;;;;;36.25;19.30;;;8.70;99.90;;;;;;5020074;28;20029;-58
2021/12/15 04:28:42;;;;;;;41.30;18.65;;;8.70;99.90;;;;;;5019559;28;20041;-56
2021/12/15 04:31:10;;;;;;;39.25;19.98;;;8.70;99.90;;;;;;5017554;28;20029;-56
2021/12/15 04:33:41;;;;;;;44.97;20.17;;;8.70;99.90;;;;;;5020211;28;20025;-58
2021/12/15 04:36:09;;;;;;;39.38;19.42;;;8.70;99.90;;;;;;5015971;28;20056;-55
2021/12/15 04:38:37;;;;;;;39.40;20.17;;;8.70;99.90;;;;;;5019326;28;20030;-56
2021/12/15 04:41:07;;;;;;;40.05;20.08;;;8.70;99.90;;;;;;5017867;28;20032;-58
2021/12/15 04:43:34;;;;;;;42.90;21.00;;;8.70;99.90;;;;;;5018058;28;20035;-58
2021/12/15 04:46:04;;;;;;;39.80;20.75;;;8.70;99.90;;;;;;5017327;28;20145;-56
2021/12/15 04:48:30;;;;;;;42.17;21.08;;;8.80;99.90;;;;;;5017010;28;20032;-59
2021/12/15 04:50:56;;;;;;;46.28;20.67;;;8.80;99.90;;;;;;5017166;28;20037;-59
2021/12/15 04:53:22;;;;;;;42.25;20.70;;;8.80;99.90;;;;;;5017666;28;20467;-56
2021/12/15 04:55:47;;;;;;;39.70;20.15;;;8.80;99.90;;;;;;5016465;28;20106;-57
2021/12/15 04:58:13;;;;;;;45.17;21.77;;;8.80;99.90;;;;;;5017578;28;20052;-56
2021/12/15 05:00:49;;;;;;;43.17;20.15;;;8.80;99.90;;;;;;5017278;28;20025;-56
2021/12/15 05:03:15;;;;;;;41.80;20.02;;;8.80;99.90;;;;;;5018944;28;20124;-56
2021/12/15 05:05:43;;;;;;;47.95;21.60;;;8.80;99.90;;;;;;5017841;28;20116;-58
2021/12/15 05:08:09;;;;;;;45.35;20.83;;;8.80;99.90;;;;;;5017637;28;20104;-56
2021/12/15 05:10:36;;;;;;;48.33;20.30;;;8.80;99.90;;;;;;5018220;28;20033;-56
2021/12/15 05:13:04;;;;;;;44.58;20.77;;;8.80;99.90;;;;;;5018151;28;20018;-56
2021/12/15 05:15:33;;;;;;;45.47;20.63;;;8.80;99.90;;;;;;5019234;28;20025;-58
2021/12/15 05:17:58;;;;;;;48.28;22.27;;;8.80;99.90;;;;;;5018110;28;20037;-57
2021/12/15 05:20:25;;;;;;;46.28;21.58;;;8.80;99.90;;;;;;5018113;28;20026;-58
2021/12/15 05:22:51;;;;;;;43.63;19.95;;;8.80;99.90;;;;;;5019138;28;20442;-56
2021/12/15 05:25:17;;;;;;;46.47;21.17;;;8.80;99.90;;;;;;5019666;28;20029;-58
2021/12/15 05:27:43;;;;;;;51.25;21.75;;;8.80;99.90;;;;;;5018619;28;20048;-56
2021/12/15 05:30:12;;;;;;;43.08;20.33;;;8.80;99.90;;;;;;5018081;28;20496;-58
2021/12/15 05:32:38;;;;;;;44.22;19.95;;;8.90;99.90;;;;;;5017997;28;20025;-56
2021/12/15 05:35:05;;;;;;;51.78;21.58;;;8.90;99.90;;;;;;5018229;28;20093;-58
2021/12/15 05:37:31;;;;;;;42.95;19.88;;;8.90;99.90;;;;;;5017532;28;20451;-57
2021/12/15 05:39:58;;;;;;;50.42;21.08;;;8.90;99.90;;;;;;5016645;28;20029;-56
2021/12/15 05:42:25;;;;;;;47.17;20.45;;;8.90;99.90;;;;;;5017777;28;20034;-58
2021/12/15 05:44:52;;;;;;;43.80;20.63;;;8.90;99.90;;;;;;5017260;28;20042;-58
2021/12/15 05:47:18;;;;;;;43.60;20.60;;;8.90;99.90;;;;;;5016675;28;20045;-57
2021/12/15 05:49:44;;;;;;;56.80;22.08;;;8.90;99.90;;;;;;5017193;28;20115;-55
2021/12/15 05:52:12;;;;;;;46.10;19.83;;;8.90;99.90;;;;;;5018513;28;20536;-57
2021/12/15 05:54:38;;;;;;;53.47;20.98;;;9.00;99.90;;;;;;5018409;28;20033;-57
2021/12/15 05:57:07;;;;;;;53.83;21.48;;;9.00;99.90;;;;;;5017214;28;20022;-59
2021/12/15 05:59:33;;;;;;;46.78;21.95;;;9.00;99.90;;;;;;5017937;28;20025;-58
2021/12/15 06:01:59;;;;;;;58.25;23.05;;;9.00;99.90;;;;;;5016237;28;20029;-55
2021/12/15 06:04:28;;;;;;;58.47;23.10;;;9.00;99.90;;;;;;5017032;28;20030;-57
2021/12/15 06:06:53;;;;;;;57.03;21.92;;;9.00;99.90;;;;;;5018434;28;20032;-56
2021/12/15 06:09:19;;;;;;;59.88;24.45;;;9.00;99.90;;;;;;5015837;28;20042;-55
2021/12/15 06:11:51;;;;;;;61.45;24.23;;;9.00;99.90;;;;;;5015411;28;20031;-58
2021/12/15 06:14:23;;;;;;;53.38;24.75;;;9.00;99.90;;;;;;5016890;28;20392;-58
2021/12/15 06:16:58;;;;;;;48.28;20.17;;;9.00;99.90;;;;;;5017854;28;20099;-57
2021/12/15 06:19:24;;;;;;;55.45;23.65;;;9.00;99.90;;;;;;5021021;28;20033;-59
2021/12/15 06:21:49;;;;;;;58.50;25.05;;;9.00;99.90;;;;;;5020729;28;20040;-58
2021/12/15 06:24:15;;;;;;;57.60;23.13;;;9.00;99.90;;;;;;5021040;28;20026;-57
2021/12/15 06:26:43;;;;;;;56.03;23.88;;;9.10;99.90;;;;;;5020097;28;20248;-56
2021/12/15 06:29:11;;;;;;;56.88;23.15;;;9.10;99.90;;;;;;5020066;28;20391;-59
2021/12/15 06:31:38;;;;;;;49.70;23.52;;;9.10;99.90;;;;;;5019370;28;20044;-58
2021/12/15 06:34:04;;;;;;;60.75;25.73;;;9.10;99.90;;;;;;5021433;28;20055;-59
2021/12/15 06:36:30;;;;;;;61.35;25.45;;;9.10;99.90;;;;;;5022004;28;20160;-57
2021/12/15 06:38:56;;;;;;;53.55;24.83;;;9.10;99.90;;;;;;5019841;28;20026;-57
2021/12/15 06:41:23;;;;;;;62.22;25.90;;;9.10;99.90;;;;;;5021094;28;20749;-58
2021/12/15 06:43:54;;;;;;;56.55;24.50;;;9.10;99.90;;;;;;5021193;28;20017;-57
2021/12/15 06:59:43;;;;;;;49.47;23.17;;;9.20;99.90;;;;;;5021105;28;20112;-54
2021/12/15 07:02:09;;;;;;;52.95;23.38;;;9.20;99.90;;;;;;5019393;28;20025;-57
2021/12/15 07:04:35;;;;;;;64.20;27.42;;;9.20;99.90;;;;;;5020291;28;20384;-56
2021/12/15 07:07:04;;;;;;;64.57;27.33;;;9.20;99.90;;;;;;5014793;28;20037;-57
2021/12/15 07:09:30;;;;;;;58.05;24.70;;;9.20;99.90;;;;;;5020779;28;20109;-55
2021/12/15 07:11:55;;;;;;;66.95;25.25;;;9.30;99.90;;;;;;5022783;28;20109;-56
2021/12/15 07:14:21;;;;;;;56.58;26.35;;;9.30;99.90;;;;;;5020270;28;20575;-57
2021/12/15 07:16:52;;;;;;;53.60;25.38;;;9.30;99.90;;;;;;5020151;28;20109;-55
2021/12/15 07:19:30;;;;;;;56.20;27.02;;;9.30;99.90;;;;;;5033488;28;20081;-56
2021/12/15 07:22:16;;;;;;;57.72;24.88;;;9.30;99.90;;;;;;5016620;28;20492;-55
2021/12/15 07:24:45;;;;;;;60.45;26.20;;;9.30;99.90;;;;;;5018361;28;20391;-57
2021/12/15 07:27:11;;;;;;;56.13;27.45;;;9.30;99.90;;;;;;5018341;28;20034;-57
2021/12/15 07:29:36;;;;;;;55.15;25.67;;;9.30;99.90;;;;;;5014183;28;20025;-57
2021/12/15 07:32:05;;;;;;;54.58;25.75;;;9.30;99.90;;;;;;5021065;28;20556;-57
2021/12/15 07:34:31;;;;;;;59.05;26.63;;;9.40;99.90;;;;;;5014710;28;20070;-56
2021/12/15 07:36:56;;;;;;;52.13;25.88;;;9.40;99.90;;;;;;5019749;28;20500;-57
2021/12/15 07:39:22;;;;;;;58.10;28.52;;;9.40;99.90;;;;;;5012837;28;20113;-57
2021/12/15 07:41:51;;;;;;;51.65;26.08;;;9.40;99.90;;;;;;5018302;28;20486;-58
2021/12/15 07:44:21;;;;;;;52.90;25.58;;;9.40;99.90;;;;;;5017995;28;20112;-58
2021/12/15 07:46:51;;;;;;;57.20;24.38;;;9.40;99.90;;;;;;5016336;28;20053;-57
2021/12/15 07:49:18;;;;;;;51.45;24.15;;;9.40;99.90;;;;;;5019949;28;20030;-57
2021/12/15 07:51:45;;;;;;;48.97;25.48;;;9.40;99.90;;;;;;5019009;28;20091;-58
2021/12/15 07:54:12;;;;;;;55.20;26.48;;;9.40;99.90;;;;;;5018301;28;20030;-58
2021/12/15 07:56:37;;;;;;;54.30;25.45;;;9.40;99.90;;;;;;5019568;28;20032;-58
2021/12/15 07:59:06;;;;;;;49.25;23.83;;;9.40;99.90;;;;;;5017502;28;20376;-57
2021/12/15 08:01:34;;;;;;;49.85;23.77;;;9.40;99.90;;;;;;5019511;28;20030;-55
2021/12/15 08:04:00;;;;;;;51.53;23.65;;;9.40;99.90;;;;;;5019546;28;20021;-57
2021/12/15 08:06:28;;;;;;;47.88;23.90;;;9.40;99.90;;;;;;5018130;28;20033;-55
2021/12/15 08:08:56;;;;;;;47.53;23.50;;;9.40;99.90;;;;;;5019106;28;20033;-56
2021/12/15 08:11:22;;;;;;;46.00;23.38;;;9.40;99.90;;;;;;5018630;28;20044;-57
2021/12/15 08:13:48;;;;;;;50.85;24.42;;;9.40;99.90;;;;;;5019684;28;20026;-57
2021/12/15 08:16:14;;;;;;;42.38;22.42;;;9.40;99.90;;;;;;5018985;28;20033;-57
2021/12/15 08:18:41;;;;;;;47.30;23.67;;;9.40;99.90;;;;;;5018338;28;20061;-55
2021/12/15 08:21:08;;;;;;;45.13;22.05;;;9.40;99.90;;;;;;5017727;28;20033;-57
2021/12/15 08:23:34;;;;;;;42.85;22.95;;;9.50;99.90;;;;;;5019795;28;20479;-57
2021/12/15 08:26:00;;;;;;;40.50;23.40;;;9.50;99.90;;;;;;5017420;28;20025;-58
2021/12/15 08:28:26;;;;;;;42.70;22.90;;;9.50;99.90;;;;;;5018702;28;20237;-56
2021/12/15 08:30:52;;;;;;;42.70;22.13;;;9.50;99.90;;;;;;5017069;28;20399;-58
2021/12/15 08:33:25;;;;;;;43.30;22.63;;;9.50;99.90;;;;;;5018954;28;20034;-58
2021/12/15 08:36:04;;;;;;;40.80;21.70;;;9.50;99.90;;;;;;5016935;28;20025;-54
2021/12/15 08:38:35;;;;;;;40.03;20.73;;;9.50;99.90;;;;;;5019025;28;20041;-58
2021/12/15 08:41:04;;;;;;;54.13;23.40;;;9.50;99.90;;;;;;5018129;28;20032;-60
2021/12/15 08:43:30;;;;;;;42.20;20.33;;;9.60;99.90;;;;;;5018347;28;20025;-57
2021/12/15 08:46:04;;;;;;;37.70;20.65;;;9.60;99.90;;;;;;5018934;28;20029;-57
2021/12/15 08:48:31;;;;;;;41.33;21.13;;;9.60;99.90;;;;;;5016860;28;20030;-58
2021/12/15 08:50:57;;;;;;;43.20;22.30;;;9.60;99.90;;;;;;5018990;28;20030;-57
2021/12/15 08:53:23;;;;;;;38.10;20.52;;;9.60;99.90;;;;;;5018942;28;20037;-57
2021/12/15 08:55:51;;;;;;;40.38;21.83;;;9.60;99.90;;;;;;5019025;28;20029;-57
2021/12/15 08:58:19;;;;;;;36.70;21.17;;;9.60;99.90;;;;;;5016369;28;20109;-57
2021/12/15 09:00:47;;;;;;;40.83;22.05;;;9.60;99.90;;;;;;5018464;28;20137;-57
2021/12/15 09:03:15;;;;;;;39.10;23.35;;;9.60;99.90;;;;;;5017677;28;20030;-58
2021/12/15 09:05:42;;;;;;;37.03;21.67;;;9.60;99.90;;;;;;5019365;28;20026;-58
2021/12/15 09:08:09;;;;;;;34.60;20.63;;;9.60;99.90;;;;;;5018960;28;20124;-57
2021/12/15 09:10:37;;;;;;;42.80;22.90;;;9.60;99.90;;;;;;5019126;28;20488;-57
2021/12/15 09:13:04;;;;;;;38.22;20.35;;;9.60;99.90;;;;;;5019519;28;20045;-59
2021/12/15 09:15:30;;;;;;;36.53;21.00;;;9.60;99.90;;;;;;5018688;28;20080;-59
2021/12/15 09:17:56;;;;;;;34.58;19.00;;;9.60;99.90;;;;;;5019890;28;20109;-56
2021/12/15 09:20:24;;;;;;;40.63;21.35;;;9.60;99.90;;;;;;5019622;28;20120;-57
2021/12/15 09:22:50;;;;;;;40.17;21.23;;;9.60;99.90;;;;;;5020563;28;20454;-58
2021/12/15 09:25:17;;;;;;;40.47;23.98;;;9.60;99.90;;;;;;5018179;28;20029;-58
2021/12/15 09:27:44;;;;;;;36.05;20.90;;;9.70;99.90;;;;;;5017955;28;20044;-58
2021/12/15 09:32:49;;;;;;;39.20;21.65;;;9.70;99.90;;;;;;4998536;28;20069;-50
2021/12/15 09:35:17;;;;;;;36.25;21.20;;;9.70;99.90;;;;;;5001221;28;20037;-49
2021/12/15 09:37:44;;;;;;;39.70;23.10;;;9.70;99.90;;;;;;4997615;28;20033;-53
2021/12/15 09:40:11;;;;;;;37.42;20.50;;;9.80;99.90;;;;;;4999540;28;20054;-52
2021/12/15 09:42:40;;;;;;;40.65;21.67;;;9.80;99.90;;;;;;4998055;28;20080;-50
2021/12/15 09:45:24;;;;;;;37.78;21.48;;;9.80;99.90;;;;;;4998424;28;20071;-55
2021/12/15 10:18:03;;;;;;;39.35;21.45;;;10.00;99.90;;;;;;4999446;28;20524;-51
2021/12/15 10:20:29;;;;;;;37.78;21.67;;;10.00;99.90;;;;;;5000738;28;20519;-51
2021/12/15 10:23:00;;;;;;;36.75;21.98;;;10.00;99.90;;;;;;5000363;28;20030;-51
2021/12/15 10:25:45;;;;;;;43.47;25.30;;;10.00;99.90;;;;;;5000674;28;20105;-52
2021/12/15 10:28:15;;;;;;;39.08;22.15;;;10.00;99.90;;;;;;4996785;28;20036;-52
2021/12/15 10:30:44;;;;;;;39.72;22.10;;;10.00;99.90;;;;;;4997610;28;20022;-57
2021/12/15 10:33:12;;;;;;;42.38;22.50;;;10.00;99.90;;;;;;4997867;28;20527;-50
2021/12/15 10:35:41;;;;;;;37.47;21.35;;;10.00;99.90;;;;;;4998253;28;20112;-57
2021/12/15 10:38:19;;;;;;;39.72;23.08;;;10.00;99.90;;;;;;4998231;28;20033;-55
2021/12/15 10:40:56;;;;;;;45.67;24.40;;;10.00;99.90;;;;;;4998135;28;20056;-55
2021/12/15 10:43:26;;;;;;;37.13;23.05;;;10.00;99.90;;;;;;4998615;28;20034;-53
2021/12/15 10:45:55;;;;;;;41.00;22.92;;;10.00;99.90;;;;;;4981642;28;20015;-52
2021/12/15 10:48:45;;;;;;;44.33;23.63;;;10.00;99.90;;;;;;4999194;28;20034;-51
2021/12/15 10:51:44;;;;;;;39.08;23.30;;;10.10;99.90;;;;;;4997911;28;20049;-54
2021/12/15 10:54:17;;;;;;;39.13;22.20;;;10.10;99.90;;;;;;4998199;28;20033;-55
2021/12/15 10:56:48;;;;;;;40.88;24.42;;;10.10;99.90;;;;;;4999235;28;20103;-54
2021/12/15 10:59:14;;;;;;;38.15;21.67;;;10.10;99.90;;;;;;4999550;28;20512;-52
2021/12/15 11:01:40;;;;;;;41.78;23.02;;;10.10;99.90;;;;;;5000000;28;20022;-54
2021/12/15 11:04:24;;;;;;;42.08;24.10;;;10.10;99.90;;;;;;4999493;28;20032;-54
2021/12/15 11:07:04;;;;;;;36.15;21.90;;;10.10;99.90;;;;;;5002444;28;20032;-54
2021/12/15 11:09:33;;;;;;;45.88;22.85;;;10.10;99.90;;;;;;5004375;28;20514;-53
2021/12/15 11:12:05;;;;;;;40.38;22.42;;;10.10;99.90;;;;;;5002976;28;20026;-55
2021/12/15 11:14:36;;;;;;;43.45;22.77;;;10.10;99.90;;;;;;5001428;28;20044;-54
2021/12/15 11:17:10;;;;;;;37.60;22.35;;;10.10;99.90;;;;;;5000810;28;20029;-56
2021/12/15 11:20:02;;;;;;;45.55;22.23;;;10.20;99.90;;;;;;5001467;28;20018;-55
2021/12/15 11:22:38;;;;;;;41.25;23.77;;;10.10;99.90;;;;;;5001329;28;20030;-54
2021/12/15 11:25:08;;;;;;;40.30;22.77;;;10.10;99.90;;;;;;5001496;28;20029;-52
2021/12/15 11:27:34;;;;;;;42.33;23.85;;;10.20;99.90;;;;;;5000817;28;20064;-54
2021/12/15 11:30:00;;;;;;;35.67;22.55;;;10.20;99.90;;;;;;5001567;28;20113;-52
2021/12/15 11:32:44;;;;;;;41.30;23.83;;;10.20;99.90;;;;;;5001725;28;20141;-53
2021/12/15 11:35:26;;;;;;;39.03;22.73;;;10.20;99.90;;;;;;5001519;28;20041;-54
2021/12/15 11:38:02;;;;;;;38.05;23.10;;;10.20;99.90;;;;;;5002171;28;20022;-54
2021/12/15 11:40:39;;;;;;;44.50;23.20;;;10.20;99.90;;;;;;4984592;28;20054;-55
2021/12/15 11:43:06;;;;;;;40.42;24.50;;;10.20;99.90;;;;;;5001683;28;20014;-56
2021/12/15 11:45:34;;;;;;;41.72;23.55;;;10.20;99.90;;;;;;5001993;28;20037;-53
2021/12/15 11:48:19;;;;;;;40.55;23.20;;;10.20;99.90;;;;;;5001386;28;20030;-54
2021/12/15 11:50:47;;;;;;;37.45;23.17;;;10.20;99.90;;;;;;5002491;28;20068;-51
2021/12/15 11:53:40;;;;;;;46.83;24.08;;;10.20;99.90;;;;;;5001848;28;20026;-55
2021/12/15 11:56:16;;;;;;;38.08;25.02;;;10.20;99.90;;;;;;5001820;28;20025;-52
2021/12/15 11:58:42;;;;;;;40.00;23.10;;;10.20;99.90;;;;;;5000925;28;20402;-56
2021/12/15 12:01:08;;;;;;;40.78;25.52;;;10.20;99.90;;;;;;5002482;28;20118;-51
2021/12/15 12:03:36;;;;;;;40.75;23.42;;;10.20;99.90;;;;;;5003069;28;20134;-50
2021/12/15 12:06:02;;;;;;;41.67;25.10;;;10.20;99.90;;;;;;4999468;28;20137;-54
2021/12/15 12:08:28;;;;;;;43.72;24.15;;;10.30;99.90;;;;;;4999511;28;20030;-51
2021/12/15 12:10:56;;;;;;;46.72;25.70;;;10.30;99.90;;;;;;4999621;28;20546;-55
2021/12/15 12:13:28;;;;;;;38.72;22.35;;;10.30;99.90;;;;;;4983273;28;20125;-53
2021/12/15 12:15:59;;;;;;;44.78;24.67;;;10.30;99.90;;;;;;5000154;28;20076;-57
2021/12/15 12:18:28;;;;;;;37.63;23.15;;;10.30;99.90;;;;;;4999994;28;20492;-51
2021/12/15 12:21:06;;;;;;;41.42;24.52;;;10.30;99.90;;;;;;4999673;28;20087;-57
2021/12/15 12:23:33;;;;;;;39.58;22.83;;;10.20;99.90;;;;;;4982886;28;20511;-52
2021/12/15 12:26:03;;;;;;;40.45;23.17;;;10.20;99.90;;;;;;5000301;28;20031;-56
2021/12/15 12:28:33;;;;;;;38.97;25.02;;;10.20;99.90;;;;;;5001139;28;20026;-56
2021/12/15 12:31:21;;;;;;;46.00;23.90;;;10.20;99.90;;;;;;5000582;28;20437;-55
2021/12/15 12:33:47;;;;;;;41.63;24.02;;;10.20;99.90;;;;;;5000391;28;20037;-50
2021/12/15 12:36:17;;;;;;;45.15;25.50;;;10.20;99.90;;;;;;5000002;28;20027;-53
2021/12/15 12:38:54;;;;;;;35.53;22.73;;;10.20;99.90;;;;;;5000688;28;20056;-57
2021/12/15 12:41:24;;;;;;;40.15;24.88;;;10.20;99.90;;;;;;5002148;28;20034;-55
2021/12/15 12:43:53;;;;;;;41.70;24.02;;;10.10;99.90;;;;;;5001049;28;20029;-54
2021/12/15 12:46:32;;;;;;;40.00;22.67;;;10.20;99.90;;;;;;5002466;28;20034;-52
2021/12/15 12:49:47;;;;;;;36.75;21.60;;;10.10;99.90;;;;;;5000543;28;20666;-56
2021/12/15 13:01:00;;;;;;;;;;;10.20;99.90;;;;;;5001831;28;20084;-54
2021/12/15 13:03:38;;;;;;;38.10;21.20;;;10.10;99.90;;;;;;4999485;28;20198;-55
2021/12/15 13:06:26;;;;;;;33.40;20.13;;;10.10;99.90;;;;;;4999564;28;20614;-58
2021/12/15 13:09:00;;;;;;;37.20;20.50;;;10.10;99.90;;;;;;4981552;28;20026;-56
2021/12/15 13:11:35;;;;;;;35.72;21.95;;;10.10;99.90;;;;;;5000284;28;20022;-49
2021/12/15 13:14:15;;;;;;;37.22;21.65;;;10.10;99.90;;;;;;5000141;28;20088;-57
2021/12/15 13:16:52;;;;;;;30.77;19.45;;;10.10;99.90;;;;;;4999844;28;20274;-51
2021/12/15 13:19:35;;;;;;;33.95;20.25;;;10.10;99.90;;;;;;5001015;28;20100;-51
2021/12/15 13:30:52;;;;;;;28.85;18.27;;;10.00;99.90;;;;;;4999776;28;20029;-58
2021/12/15 13:33:29;;;;;;;35.20;22.00;;;10.00;99.90;;;;;;5001496;28;20448;-55
2021/12/15 13:36:04;;;;;;;39.22;23.48;;;10.00;99.90;;;;;;4999743;28;20034;-57
2021/12/15 13:38:52;;;;;;;33.17;20.83;;;10.00;99.90;;;;;;5001089;28;20030;-56
2021/12/15 13:44:24;;;;;;;25.95;17.13;;;9.90;99.90;;;;;;4999751;28;20037;-57
2021/12/15 13:47:05;;;;;;;26.50;16.70;;;9.90;99.90;;;;;;5001221;28;20021;-56
2021/12/15 13:49:47;;;;;;;28.17;19.40;;;9.90;99.90;;;;;;5000268;28;20488;-51
2021/12/15 13:52:31;;;;;;;27.45;18.50;;;9.90;99.90;;;;;;4997992;28;20057;-58
2021/12/15 13:55:22;;;;;;;25.83;18.25;;;9.90;99.90;;;;;;4998456;28;20041;-53
2021/12/15 13:58:12;;;;;;;26.77;18.15;;;9.90;99.90;;;;;;4970882;28;20100;-57
2021/12/15 14:00:55;;;;;;;24.38;15.82;;;9.90;99.90;;;;;;4998264;28;20069;-57
2021/12/15 14:03:25;;;;;;;27.10;16.85;;;9.80;99.90;;;;;;5000321;28;20029;-57
2021/12/15 14:06:08;;;;;;;29.02;20.60;;;9.90;99.90;;;;;;4998728;28;20026;-56
2021/12/15 14:08:49;;;;;;;24.63;17.17;;;9.90;99.90;;;;;;4999205;28;20453;-57
2021/12/15 14:11:20;;;;;;;22.48;14.95;;;9.80;99.90;;;;;;4999187;28;20026;-59
2021/12/15 14:14:06;;;;;;;23.95;15.45;;;9.80;99.90;;;;;;4998721;28;20026;-55
2021/12/15 14:16:40;;;;;;;21.13;14.88;;;9.90;99.90;;;;;;4999265;28;20091;-53
2021/12/15 14:19:14;;;;;;;26.85;15.48;;;9.80;99.90;;;;;;4998917;28;20030;-58
2021/12/15 14:21:40;;;;;;;23.83;14.15;;;9.80;99.90;;;;;;4999555;28;20034;-54
2021/12/15 14:24:07;;;;;;;24.25;14.60;;;9.80;99.90;;;;;;4998928;28;20113;-56
2021/12/15 14:26:36;;;;;;;19.08;13.38;;;9.70;99.90;;;;;;4982854;28;20041;-52
2021/12/15 14:29:15;;;;;;;31.35;15.85;;;9.70;99.90;;;;;;4999449;28;20096;-50
2021/12/15 14:31:43;;;;;;;23.63;15.25;;;9.70;99.90;;;;;;4999750;28;20644;-56